Time;durP1;ratioP1;P1;durP2;ratioP2;P2;SDS_P1;SDS_P2;PMS_P1;PMS_P2;Temp;Humidity;BMP_temperature;BMP_pressure;BME280_temperature;BME280_humidity;BME280_pressure;Samples;Min_cycle;Max_cycle;Signal;HPM_P1;HPM_P2
2024/04/02 00:00:27;;;;;;;1.48;0.25;;;10.90;99.90;;;;;;4230081;28;20052;-54
2024/04/02 00:02:28;;;;;;;2.65;0.28;;;10.90;99.90;;;;;;4229569;28;20059;-53
2024/04/02 00:04:30;;;;;;;1.42;0.60;;;10.90;99.90;;;;;;4229941;28;20054;-53
2024/04/02 00:06:33;;;;;;;1.90;0.82;;;10.90;99.90;;;;;;4230099;28;20048;-54
2024/04/02 00:08:35;;;;;;;1.42;0.60;;;10.90;99.90;;;;;;4230039;28;20050;-57
2024/04/02 00:10:38;;;;;;;1.42;0.60;;;10.90;99.90;;;;;;4229674;28;20051;-53
2024/04/02 00:12:39;;;;;;;1.30;0.73;;;10.90;99.90;;;;;;4229766;28;20054;-54
2024/04/02 00:14:41;;;;;;;0.63;0.40;;;10.90;99.90;;;;;;4229687;28;20047;-52
2024/04/02 00:16:42;;;;;;;2.08;1.10;;;10.80;99.90;;;;;;4228708;28;20052;-52
2024/04/02 00:18:44;;;;;;;1.70;1.10;;;10.80;99.90;;;;;;4229434;28;20043;-52
2024/04/02 00:20:45;;;;;;;0.82;0.70;;;10.90;99.90;;;;;;4229656;28;20043;-52
2024/04/02 00:22:48;;;;;;;0.75;0.40;;;10.80;99.90;;;;;;4231416;27;20059;-52
2024/04/02 00:24:49;;;;;;;1.65;0.55;;;10.80;99.90;;;;;;4229616;28;20097;-52
2024/04/02 00:26:51;;;;;;;1.05;0.30;;;10.80;99.90;;;;;;4229684;28;20048;-52
2024/04/02 00:28:52;;;;;;;1.60;0.40;;;10.80;99.90;;;;;;4229866;28;20056;-64
2024/04/02 00:30:58;;;;;;;4.30;0.80;;;10.80;99.90;;;;;;4229274;28;20050;-56
2024/04/02 00:33:00;;;;;;;1.98;0.50;;;10.70;99.90;;;;;;4229815;28;20374;-52
2024/04/02 00:35:01;;;;;;;2.60;1.17;;;10.60;99.90;;;;;;4229401;28;20101;-52
2024/04/02 00:37:03;;;;;;;0.77;0.50;;;10.60;99.90;;;;;;4229214;28;20047;-53
2024/04/02 00:39:06;;;;;;;1.65;0.85;;;10.70;99.90;;;;;;4229584;28;20477;-54
2024/04/02 00:41:07;;;;;;;1.10;0.50;;;10.70;99.90;;;;;;4229483;28;20054;-52
2024/04/02 00:43:12;;;;;;;2.17;0.52;;;10.70;99.90;;;;;;4212425;28;20048;-54
2024/04/02 00:45:13;;;;;;;11.50;2.97;;;10.60;99.90;;;;;;4229006;28;20519;-55
2024/04/02 00:47:15;;;;;;;1.65;0.63;;;10.60;99.90;;;;;;4229305;28;20098;-53
2024/04/02 00:49:16;;;;;;;0.70;0.28;;;10.70;99.90;;;;;;4229257;28;20065;-53
2024/04/02 00:51:18;;;;;;;7.10;0.90;;;10.70;99.90;;;;;;4229185;28;20058;-53
2024/04/02 00:53:21;;;;;;;2.20;1.00;;;10.70;99.90;;;;;;4229212;28;20489;-53
2024/04/02 00:55:23;;;;;;;3.00;0.52;;;10.60;99.90;;;;;;4229568;28;20051;-55
2024/04/02 00:57:25;;;;;;;1.20;0.57;;;10.60;99.90;;;;;;4229071;28;20058;-54
2024/04/02 00:59:28;;;;;;;1.05;0.40;;;10.50;99.90;;;;;;4229158;28;20044;-53
2024/04/02 01:01:29;;;;;;;0.52;0.52;;;10.50;99.90;;;;;;4229368;28;20342;-53
2024/04/02 01:03:31;;;;;;;0.47;0.30;;;10.50;99.90;;;;;;4229243;28;20834;-53
2024/04/02 01:05:34;;;;;;;1.60;0.50;;;10.60;99.90;;;;;;4229445;28;20048;-53
2024/04/02 01:07:36;;;;;;;4.00;0.70;;;10.70;99.90;;;;;;4229097;28;20050;-53
2024/04/02 01:09:38;;;;;;;0.55;0.28;;;10.60;99.90;;;;;;4229111;28;20415;-54
2024/04/02 01:11:41;;;;;;;2.17;0.68;;;10.60;99.90;;;;;;4229548;28;20487;-54
2024/04/02 01:13:44;;;;;;;4.25;1.08;;;10.60;99.90;;;;;;4228959;28;20051;-58
2024/04/02 01:15:45;;;;;;;2.00;0.28;;;10.60;99.90;;;;;;4229232;28;20039;-54
2024/04/02 01:17:47;;;;;;;2.25;0.55;;;10.60;99.90;;;;;;4228853;28;20051;-54
2024/04/02 01:19:49;;;;;;;0.65;0.50;;;10.60;99.90;;;;;;4229124;28;20043;-54
2024/04/02 01:21:50;;;;;;;1.90;0.73;;;10.60;99.90;;;;;;4228998;28;20058;-56
2024/04/02 01:23:51;;;;;;;1.00;0.63;;;10.60;99.90;;;;;;4228970;28;20052;-53
2024/04/02 01:25:54;;;;;;;1.15;0.50;;;10.60;99.90;;;;;;4229074;28;20043;-55
2024/04/02 01:27:56;;;;;;;3.70;0.80;;;10.70;99.90;;;;;;4229409;28;20408;-54
2024/04/02 01:29:57;;;;;;;2.72;1.33;;;10.70;99.90;;;;;;4231801;28;20093;-53
2024/04/02 01:31:59;;;;;;;1.60;0.45;;;10.70;99.90;;;;;;4232478;28;20057;-54
2024/04/02 01:34:00;;;;;;;0.77;0.38;;;10.60;99.90;;;;;;4232387;28;20052;-53
2024/04/02 01:36:02;;;;;;;2.30;0.57;;;10.60;99.90;;;;;;4232400;28;20053;-54
2024/04/02 01:38:04;;;;;;;1.50;0.55;;;10.60;99.90;;;;;;4232236;28;20405;-53
2024/04/02 01:40:06;;;;;;;1.83;0.40;;;10.50;99.90;;;;;;4232257;28;20048;-54
2024/04/02 01:42:09;;;;;;;2.20;0.40;;;10.50;99.90;;;;;;4232090;28;20101;-53
2024/04/02 01:44:10;;;;;;;1.42;0.50;;;10.60;99.90;;;;;;4232115;28;20097;-53
2024/04/02 01:46:13;;;;;;;1.33;0.75;;;10.60;99.90;;;;;;4232083;28;20043;-54
2024/04/02 01:48:14;;;;;;;1.45;0.80;;;10.60;99.90;;;;;;4232311;28;20048;-54
2024/04/02 01:50:16;;;;;;;3.97;0.77;;;10.60;99.90;;;;;;4232075;28;20062;-53
2024/04/02 01:52:17;;;;;;;1.10;0.70;;;10.60;99.90;;;;;;4231957;28;20051;-54
2024/04/02 01:54:19;;;;;;;2.30;0.60;;;10.60;99.90;;;;;;4232038;28;20048;-53
2024/04/02 01:56:20;;;;;;;2.20;0.55;;;10.60;99.90;;;;;;4232115;28;20056;-53
2024/04/02 01:58:23;;;;;;;0.77;0.50;;;10.50;99.90;;;;;;4231838;28;20051;-54
2024/04/02 02:00:24;;;;;;;4.10;1.40;;;10.50;99.90;;;;;;4215261;28;20055;-55
2024/04/02 02:02:26;;;;;;;1.98;1.55;;;10.40;99.90;;;;;;4231702;28;20066;-53
2024/04/02 02:04:27;;;;;;;1.17;0.68;;;10.50;99.90;;;;;;4232019;28;20054;-55
2024/04/02 02:06:28;;;;;;;6.25;1.02;;;10.50;99.90;;;;;;4232097;28;20052;-53
2024/04/02 02:08:30;;;;;;;0.70;0.38;;;10.50;99.90;;;;;;4231949;28;20058;-53
2024/04/02 02:10:32;;;;;;;0.60;0.60;;;10.40;99.90;;;;;;4231833;28;20487;-53
2024/04/02 02:12:34;;;;;;;3.17;0.85;;;10.40;99.90;;;;;;4231464;28;20044;-52
2024/04/02 02:14:36;;;;;;;1.30;0.75;;;10.40;99.90;;;;;;4231589;28;20044;-56
2024/04/02 02:16:38;;;;;;;2.05;0.88;;;10.40;99.90;;;;;;4231648;28;20471;-53
2024/04/02 02:18:39;;;;;;;0.65;0.38;;;10.50;99.90;;;;;;4231549;28;20048;-52
2024/04/02 02:20:40;;;;;;;4.05;1.15;;;10.50;99.90;;;;;;4231454;28;20137;-51
2024/04/02 02:22:42;;;;;;;2.65;1.10;;;10.50;99.90;;;;;;4231251;28;20070;-52
2024/04/02 02:24:43;;;;;;;0.90;0.70;;;10.60;99.90;;;;;;4231414;28;20051;-54
2024/04/02 02:26:45;;;;;;;2.47;0.68;;;10.50;99.90;;;;;;4230960;28;20085;-52
2024/04/02 02:28:46;;;;;;;0.35;0.35;;;10.60;99.90;;;;;;4231243;28;20051;-54
2024/04/02 02:30:49;;;;;;;1.55;0.28;;;10.60;99.90;;;;;;4231586;28;20050;-54
2024/04/02 02:32:50;;;;;;;0.60;0.22;;;10.50;99.90;;;;;;4231337;28;20047;-59
2024/04/02 02:34:52;;;;;;;2.75;0.40;;;10.50;99.90;;;;;;4231687;28;20051;-52
2024/04/02 02:36:53;;;;;;;2.58;1.38;;;10.50;99.90;;;;;;4231331;28;20172;-52
2024/04/02 02:38:54;;;;;;;5.22;1.45;;;10.50;99.90;;;;;;4231385;28;20093;-52
2024/04/02 02:40:59;;;;;;;1.02;0.55;;;10.50;99.90;;;;;;4229802;28;20059;-52
2024/04/02 02:43:00;;;;;;;0.98;0.30;;;10.40;99.90;;;;;;4231587;28;20063;-52
2024/04/02 02:45:02;;;;;;;3.67;1.88;;;10.40;99.90;;;;;;4231082;28;20155;-54
2024/04/02 02:47:05;;;;;;;3.53;0.85;;;10.30;99.90;;;;;;4231398;28;20040;-54
2024/04/02 02:49:06;;;;;;;3.05;0.40;;;10.30;99.90;;;;;;4230963;28;20039;-54
2024/04/02 02:51:07;;;;;;;6.65;0.93;;;10.30;99.90;;;;;;4231270;28;20085;-54
2024/04/02 02:53:09;;;;;;;6.45;0.90;;;10.30;99.90;;;;;;4231151;28;20044;-53
2024/04/02 02:55:10;;;;;;;8.82;1.10;;;10.30;99.90;;;;;;4230710;28;20035;-54
2024/04/02 02:57:12;;;;;;;3.85;1.63;;;10.40;99.90;;;;;;4230837;28;20048;-58
2024/04/02 02:59:13;;;;;;;1.00;0.32;;;10.30;99.90;;;;;;4231016;28;20047;-56
2024/04/02 03:01:14;;;;;;;1.80;0.80;;;10.30;99.90;;;;;;4231018;28;20466;-58
2024/04/02 03:03:17;;;;;;;3.92;0.55;;;10.30;99.90;;;;;;4231067;28;20043;-54
2024/04/02 03:05:19;;;;;;;0.95;0.50;;;10.30;99.90;;;;;;4231116;28;20052;-53
2024/04/02 03:07:20;;;;;;;0.90;0.52;;;10.30;99.90;;;;;;4231073;28;20397;-54
2024/04/02 03:09:21;;;;;;;0.93;0.40;;;10.30;99.90;;;;;;4230804;28;20048;-54
2024/04/02 03:11:23;;;;;;;2.40;1.05;;;10.30;99.90;;;;;;4230789;28;20044;-53
2024/04/02 03:13:24;;;;;;;0.93;0.85;;;10.30;99.90;;;;;;4230765;28;20054;-59
2024/04/02 03:15:26;;;;;;;1.02;0.45;;;10.20;99.90;;;;;;4230713;28;20282;-53
2024/04/02 03:17:28;;;;;;;2.03;0.93;;;10.20;99.90;;;;;;4230930;28;20051;-55
2024/04/02 03:19:30;;;;;;;1.83;0.70;;;10.20;99.90;;;;;;4230627;28;20052;-54
2024/04/02 03:21:32;;;;;;;1.27;0.93;;;10.20;99.90;;;;;;4230600;28;20061;-53
2024/04/02 03:23:33;;;;;;;1.88;0.77;;;10.30;99.90;;;;;;4230517;28;20113;-54
2024/04/02 03:25:35;;;;;;;0.73;0.40;;;10.30;99.90;;;;;;4230523;28;20400;-55
2024/04/02 03:27:36;;;;;;;0.30;0.20;;;10.30;99.90;;;;;;4230549;28;20054;-53
2024/04/02 03:29:38;;;;;;;1.98;0.73;;;10.40;99.90;;;;;;4230534;28;20051;-54
2024/04/02 03:31:39;;;;;;;7.00;0.40;;;10.40;99.90;;;;;;4230350;28;20051;-53
2024/04/02 03:33:41;;;;;;;0.52;0.52;;;10.40;99.90;;;;;;4230443;28;20060;-60
2024/04/02 03:35:43;;;;;;;0.50;0.22;;;10.30;99.90;;;;;;4230845;28;20051;-52
2024/04/02 03:37:45;;;;;;;4.63;1.08;;;10.40;99.90;;;;;;4213554;28;20048;-55
2024/04/02 03:39:46;;;;;;;3.00;0.60;;;10.40;99.90;;;;;;4229916;28;20048;-53
2024/04/02 03:41:51;;;;;;;0.30;0.30;;;10.40;99.90;;;;;;4230100;28;20051;-56
2024/04/02 03:43:52;;;;;;;2.08;0.30;;;10.40;99.90;;;;;;4230389;28;20044;-54
2024/04/02 03:45:54;;;;;;;3.15;0.90;;;10.40;99.90;;;;;;4230416;28;20515;-53
2024/04/02 03:47:56;;;;;;;6.75;0.95;;;10.50;99.90;;;;;;4230209;28;20047;-54
2024/04/02 03:49:57;;;;;;;0.40;0.20;;;10.40;99.90;;;;;;4230334;28;20047;-53
2024/04/02 03:52:00;;;;;;;1.30;0.90;;;10.30;99.90;;;;;;4230121;28;20504;-53
2024/04/02 03:54:01;;;;;;;2.00;0.50;;;10.30;99.90;;;;;;4229913;28;20048;-53
2024/04/02 03:56:04;;;;;;;2.05;1.27;;;10.40;99.90;;;;;;4230055;28;20047;-54
2024/04/02 03:58:06;;;;;;;0.80;0.63;;;10.50;99.90;;;;;;4230144;28;20048;-53
2024/04/02 04:00:08;;;;;;;1.25;0.50;;;10.40;99.90;;;;;;4230292;28;20047;-55
2024/04/02 04:02:09;;;;;;;6.55;0.52;;;10.40;99.90;;;;;;4230297;28;20047;-54
2024/04/02 04:04:10;;;;;;;2.38;0.93;;;10.40;99.90;;;;;;4230390;28;20081;-53
2024/04/02 04:06:12;;;;;;;1.33;0.50;;;10.40;99.90;;;;;;4230607;28;20051;-61
2024/04/02 04:08:15;;;;;;;2.15;1.25;;;10.40;99.90;;;;;;4229983;28;20070;-55
2024/04/02 04:10:20;;;;;;;1.40;0.52;;;10.40;99.90;;;;;;4230153;28;20121;-54
2024/04/02 04:12:22;;;;;;;0.52;0.40;;;10.40;99.90;;;;;;4230121;28;20051;-54
2024/04/02 04:14:23;;;;;;;0.52;0.43;;;10.40;99.90;;;;;;4229962;28;20054;-53
2024/04/02 04:16:24;;;;;;;0.85;0.73;;;10.40;99.90;;;;;;4213187;28;20063;-54
2024/04/02 04:18:27;;;;;;;1.75;0.68;;;10.50;99.90;;;;;;4229872;28;20050;-54
2024/04/02 04:20:30;;;;;;;0.63;0.50;;;10.40;99.90;;;;;;4229610;28;20054;-55
2024/04/02 04:22:32;;;;;;;0.93;0.30;;;10.40;99.90;;;;;;4229365;28;20060;-55
2024/04/02 04:24:35;;;;;;;3.40;1.08;;;10.30;99.80;;;;;;4229646;28;20540;-56
2024/04/02 04:26:36;;;;;;;1.73;0.70;;;10.40;99.90;;;;;;4234607;28;20421;-53
2024/04/02 04:28:38;;;;;;;2.47;1.98;;;10.40;99.90;;;;;;4229629;28;20527;-54
2024/04/02 04:30:39;;;;;;;0.57;0.20;;;10.40;99.90;;;;;;4230127;28;20129;-55
2024/04/02 04:32:40;;;;;;;0.75;0.45;;;10.40;99.80;;;;;;4229970;28;20058;-52
2024/04/02 04:34:42;;;;;;;2.63;0.63;;;10.40;99.90;;;;;;4229717;28;20044;-62
2024/04/02 04:36:43;;;;;;;0.43;0.30;;;10.40;99.80;;;;;;4229413;28;20446;-54
2024/04/02 04:38:44;;;;;;;3.95;0.98;;;10.50;99.80;;;;;;4229547;28;20047;-56
2024/04/02 04:40:48;;;;;;;2.47;0.88;;;10.40;99.50;;;;;;4229676;28;20051;-54
2024/04/02 04:42:49;;;;;;;1.15;0.57;;;10.40;99.70;;;;;;4212941;28;20052;-54
2024/04/02 04:44:51;;;;;;;1.65;1.27;;;10.30;99.70;;;;;;4212655;28;20055;-54
2024/04/02 04:46:52;;;;;;;1.85;0.63;;;10.30;99.80;;;;;;4229584;28;20070;-53
2024/04/02 04:48:54;;;;;;;6.57;1.55;;;10.40;99.90;;;;;;4229364;28;20407;-55
2024/04/02 04:50:56;;;;;;;0.20;0.20;;;10.30;99.80;;;;;;4229521;28;20504;-53
2024/04/02 04:52:58;;;;;;;0.90;0.32;;;10.30;99.90;;;;;;4212202;28;20040;-54
2024/04/02 04:54:59;;;;;;;0.60;0.60;;;10.30;99.90;;;;;;4229389;28;20055;-54
2024/04/02 04:57:02;;;;;;;5.15;1.75;;;10.20;99.80;;;;;;4229420;28;20625;-53
2024/04/02 04:59:04;;;;;;;0.95;0.50;;;10.20;99.90;;;;;;4229455;28;20065;-54
2024/04/02 05:01:05;;;;;;;1.38;0.70;;;10.20;99.90;;;;;;4229093;28;20090;-53
2024/04/02 05:03:06;;;;;;;2.05;0.57;;;10.20;99.90;;;;;;4229079;28;20052;-54
2024/04/02 05:05:09;;;;;;;0.35;0.28;;;10.10;99.90;;;;;;4232961;28;20495;-55
2024/04/02 05:07:21;;;;;;;0.82;0.40;;;10.10;99.90;;;;;;4232656;28;20043;-54
2024/04/02 05:09:23;;;;;;;3.70;1.58;;;10.10;99.90;;;;;;4232780;28;20047;-59
2024/04/02 05:11:24;;;;;;;1.98;0.50;;;10.10;99.90;;;;;;4232899;28;20428;-53
2024/04/02 05:13:27;;;;;;;1.55;0.47;;;10.10;99.90;;;;;;4232500;28;20050;-54
2024/04/02 05:15:28;;;;;;;0.75;0.45;;;10.10;99.90;;;;;;4232664;28;20480;-54
2024/04/02 05:17:31;;;;;;;1.10;0.70;;;10.00;99.90;;;;;;4232578;28;20047;-54
2024/04/02 05:19:32;;;;;;;0.60;0.20;;;10.10;99.90;;;;;;4232654;28;20048;-53
2024/04/02 05:21:34;;;;;;;0.40;0.30;;;10.10;99.90;;;;;;4232221;28;20097;-53
2024/04/02 05:23:35;;;;;;;2.13;0.30;;;10.20;99.90;;;;;;4215539;28;20066;-53
2024/04/02 05:25:37;;;;;;;2.88;1.42;;;10.10;99.90;;;;;;4232410;28;20047;-56
2024/04/02 05:27:38;;;;;;;0.63;0.25;;;10.10;99.90;;;;;;4232372;28;20550;-55
2024/04/02 05:29:41;;;;;;;0.65;0.30;;;10.20;99.90;;;;;;4232351;28;20047;-53
2024/04/02 05:31:42;;;;;;;8.95;1.75;;;10.10;99.90;;;;;;4232571;28;20054;-53
2024/04/02 05:33:44;;;;;;;2.10;0.43;;;10.20;99.90;;;;;;4232378;28;20043;-55
2024/04/02 05:35:45;;;;;;;0.90;0.50;;;10.20;99.90;;;;;;4214868;28;20487;-56
2024/04/02 05:37:48;;;;;;;2.80;0.55;;;10.20;99.90;;;;;;4232253;28;20062;-55
2024/04/02 05:39:49;;;;;;;0.57;0.28;;;10.20;99.90;;;;;;4232551;28;20050;-54
2024/04/02 05:41:51;;;;;;;7.13;0.93;;;10.10;99.90;;;;;;4232163;28;20044;-52
2024/04/02 05:43:52;;;;;;;1.55;0.52;;;10.10;99.90;;;;;;4232530;28;20476;-52
2024/04/02 05:45:55;;;;;;;0.80;0.40;;;10.10;99.90;;;;;;4232391;28;20044;-54
2024/04/02 05:47:57;;;;;;;3.85;1.23;;;10.10;99.90;;;;;;4232285;28;20054;-54
2024/04/02 05:49:58;;;;;;;1.00;0.45;;;10.00;99.90;;;;;;4231812;28;20045;-54
2024/04/02 05:51:59;;;;;;;14.10;0.93;;;10.10;99.90;;;;;;4232116;28;20052;-55
2024/04/02 05:54:01;;;;;;;2.83;0.70;;;10.10;99.90;;;;;;4232049;28;20455;-53
2024/04/02 05:56:04;;;;;;;1.52;0.95;;;10.20;99.90;;;;;;4231947;28;20059;-54
2024/04/02 05:58:06;;;;;;;2.22;0.57;;;10.10;99.90;;;;;;4232063;28;20048;-54
2024/04/02 06:00:10;;;;;;;1.08;0.50;;;10.20;99.90;;;;;;4232272;28;20066;-55
2024/04/02 06:02:13;;;;;;;0.55;0.20;;;10.20;99.90;;;;;;4232312;28;20044;-54
2024/04/02 06:04:14;;;;;;;1.80;0.95;;;10.20;99.80;;;;;;4231934;28;20420;-55
2024/04/02 06:06:17;;;;;;;4.60;0.65;;;10.20;99.90;;;;;;4231860;28;20040;-55
2024/04/02 06:08:18;;;;;;;1.02;0.20;;;10.30;99.90;;;;;;4231691;28;20052;-54
2024/04/02 06:10:20;;;;;;;0.38;0.35;;;10.30;99.90;;;;;;4231982;28;20402;-53
2024/04/02 06:12:21;;;;;;;0.65;0.30;;;10.20;99.80;;;;;;4232017;28;20052;-54
2024/04/02 06:14:23;;;;;;;1.35;0.90;;;10.20;99.70;;;;;;4231625;28;20054;-53
2024/04/02 06:16:24;;;;;;;6.60;0.45;;;10.20;99.80;;;;;;4231526;28;20048;-54
2024/04/02 06:18:27;;;;;;;1.58;0.75;;;10.00;99.90;;;;;;4231252;28;20058;-54
2024/04/02 06:20:28;;;;;;;1.45;0.73;;;10.00;99.90;;;;;;4231529;28;20052;-54
2024/04/02 06:22:32;;;;;;;1.45;0.30;;;10.00;99.90;;;;;;4214163;28;20106;-52
2024/04/02 06:24:34;;;;;;;2.25;0.40;;;10.00;99.90;;;;;;4231838;28;20380;-53
2024/04/02 06:26:35;;;;;;;0.40;0.17;;;10.00;99.90;;;;;;4231488;28;20050;-54
2024/04/02 06:28:36;;;;;;;1.50;0.40;;;9.90;99.90;;;;;;4231565;28;20055;-54
2024/04/02 06:30:38;;;;;;;0.22;0.22;;;10.00;99.90;;;;;;4231561;28;20440;-55
2024/04/02 06:32:39;;;;;;;2.28;0.30;;;10.00;99.90;;;;;;4231057;28;20052;-54
2024/04/02 06:34:42;;;;;;;2.22;1.17;;;10.10;99.90;;;;;;4231727;28;20061;-55
2024/04/02 06:36:43;;;;;;;1.33;0.30;;;10.20;99.90;;;;;;4231340;28;20058;-53
2024/04/02 06:38:45;;;;;;;1.48;0.75;;;10.20;99.90;;;;;;4231212;28;20097;-55
2024/04/02 06:40:46;;;;;;;0.70;0.30;;;10.20;99.70;;;;;;4231217;28;20044;-54
2024/04/02 06:42:48;;;;;;;0.20;0.20;;;10.30;99.90;;;;;;4231046;28;20052;-54
2024/04/02 06:44:49;;;;;;;15.27;2.63;;;10.30;99.70;;;;;;4231253;28;20526;-54
2024/04/02 06:46:51;;;;;;;0.63;0.40;;;10.40;99.70;;;;;;4231269;28;20044;-54
2024/04/02 06:48:52;;;;;;;5.63;0.68;;;10.50;99.20;;;;;;4213833;28;20165;-55
2024/04/02 06:50:58;;;;;;;2.20;1.23;;;10.60;99.30;;;;;;4231334;28;20522;-54
2024/04/02 06:53:00;;;;;;;2.42;0.85;;;10.70;99.30;;;;;;4231366;28;20548;-53
2024/04/02 06:55:02;;;;;;;0.75;0.25;;;10.80;99.00;;;;;;4231145;28;20055;-51
2024/04/02 06:57:04;;;;;;;2.88;1.00;;;10.90;99.20;;;;;;4231351;28;20054;-54
2024/04/02 06:59:05;;;;;;;1.05;0.22;;;11.00;98.90;;;;;;4231212;28;20039;-54
2024/04/02 07:01:06;;;;;;;3.78;1.58;;;11.00;98.50;;;;;;4231204;28;20052;-54
2024/04/02 07:03:08;;;;;;;2.38;0.77;;;11.00;98.90;;;;;;4230783;28;20044;-53
2024/04/02 07:05:09;;;;;;;2.47;0.70;;;10.90;98.40;;;;;;4231139;28;20473;-54
2024/04/02 07:07:12;;;;;;;1.92;0.60;;;10.90;98.60;;;;;;4230678;28;20103;-54
2024/04/02 07:09:13;;;;;;;1.65;0.98;;;10.90;98.70;;;;;;4230821;28;20097;-55
2024/04/02 07:11:15;;;;;;;1.52;0.30;;;10.90;98.70;;;;;;4230844;28;20047;-54
2024/04/02 07:13:16;;;;;;;1.17;0.38;;;10.80;98.70;;;;;;4230746;28;20048;-54
2024/04/02 07:15:18;;;;;;;0.88;0.40;;;10.80;99.10;;;;;;4230757;28;20044;-54
2024/04/02 07:17:19;;;;;;;2.63;0.47;;;10.90;99.00;;;;;;4230571;28;20062;-54
2024/04/02 07:19:22;;;;;;;4.10;0.40;;;10.80;99.00;;;;;;4230352;28;20059;-53
2024/04/02 07:21:24;;;;;;;0.68;0.55;;;10.80;98.90;;;;;;4230459;28;20055;-54
2024/04/02 07:23:27;;;;;;;1.20;0.82;;;10.70;98.90;;;;;;4230706;28;20044;-53
2024/04/02 07:25:28;;;;;;;0.65;0.57;;;10.70;99.00;;;;;;4230613;28;20499;-54
2024/04/02 07:27:29;;;;;;;2.58;0.40;;;10.60;99.10;;;;;;4230072;28;20048;-55
2024/04/02 07:29:31;;;;;;;4.45;0.38;;;10.70;99.10;;;;;;4230749;28;20477;-54
2024/04/02 07:31:32;;;;;;;2.92;0.40;;;10.80;99.20;;;;;;4230029;28;20050;-53
2024/04/02 07:33:34;;;;;;;0.80;0.35;;;10.90;99.10;;;;;;4230486;28;20043;-53
2024/04/02 07:35:36;;;;;;;1.50;0.60;;;11.20;98.70;;;;;;4213562;28;20048;-53
2024/04/02 07:37:37;;;;;;;5.60;0.85;;;11.40;98.20;;;;;;4230433;28;20050;-54
2024/04/02 07:39:40;;;;;;;1.65;0.60;;;11.50;98.00;;;;;;4230570;28;20046;-55
2024/04/02 07:41:41;;;;;;;2.35;0.32;;;11.70;97.90;;;;;;4230735;28;20043;-54
2024/04/02 07:43:42;;;;;;;5.25;1.85;;;11.80;97.40;;;;;;4230453;28;20578;-60
2024/04/02 07:45:50;;;;;;;1.15;0.50;;;12.00;97.60;;;;;;4230147;28;20495;-54
2024/04/02 07:47:52;;;;;;;2.70;0.80;;;12.10;97.40;;;;;;4230427;28;20055;-53
2024/04/02 07:49:53;;;;;;;0.88;0.38;;;12.10;97.60;;;;;;4213406;28;20044;-54
2024/04/02 07:51:55;;;;;;;3.92;0.30;;;12.30;97.20;;;;;;4230167;28;20048;-56
2024/04/02 07:53:56;;;;;;;3.05;0.52;;;12.10;96.80;;;;;;4230103;28;20040;-53
2024/04/02 07:55:59;;;;;;;2.83;0.40;;;12.30;97.10;;;;;;4230182;28;20062;-54
2024/04/02 07:58:00;;;;;;;16.50;1.88;;;12.80;96.40;;;;;;4230089;28;20056;-53
2024/04/02 08:00:03;;;;;;;1.27;0.60;;;13.10;96.20;;;;;;4229779;28;20280;-53
2024/04/02 08:02:04;;;;;;;4.53;0.40;;;13.30;95.90;;;;;;4230291;28;20040;-61
2024/04/02 08:04:05;;;;;;;2.35;0.52;;;13.70;95.40;;;;;;4230130;28;20427;-54
2024/04/02 08:06:07;;;;;;;0.82;0.30;;;13.90;95.10;;;;;;4230215;28;20046;-54
2024/04/02 08:08:08;;;;;;;2.63;0.60;;;14.10;94.60;;;;;;4229958;28;20504;-58
2024/04/02 08:10:11;;;;;;;0.75;0.50;;;14.30;95.20;;;;;;4230158;28;20452;-52
2024/04/02 08:12:14;;;;;;;0.98;0.75;;;14.60;94.50;;;;;;4229822;28;20052;-51
2024/04/02 08:14:15;;;;;;;1.55;0.60;;;14.80;94.30;;;;;;4229444;28;20049;-51
2024/04/02 08:16:17;;;;;;;1.50;0.50;;;14.80;93.50;;;;;;4229700;28;20035;-52
2024/04/02 08:18:19;;;;;;;1.67;0.65;;;14.80;93.30;;;;;;4229502;28;20058;-56
2024/04/02 08:20:20;;;;;;;0.90;0.30;;;14.70;93.50;;;;;;4229760;28;20528;-53
2024/04/02 08:22:22;;;;;;;2.45;1.17;;;15.20;93.10;;;;;;4229299;28;20535;-57
2024/04/02 08:24:25;;;;;;;1.85;0.70;;;15.50;92.70;;;;;;4212979;28;20048;-54
2024/04/02 08:26:27;;;;;;;2.75;1.15;;;15.00;92.50;;;;;;4229853;28;20047;-59
2024/04/02 08:28:31;;;;;;;0.95;0.30;;;14.70;92.80;;;;;;4229563;28;20436;-51
2024/04/02 08:30:33;;;;;;;1.17;0.40;;;14.70;92.70;;;;;;4212418;28;20478;-51
2024/04/02 08:32:35;;;;;;;1.15;0.50;;;14.70;92.60;;;;;;4234511;28;20435;-56
2024/04/02 08:34:36;;;;;;;5.20;1.33;;;14.80;92.90;;;;;;4229406;28;20047;-53
2024/04/02 08:36:38;;;;;;;1.10;0.88;;;14.80;92.40;;;;;;4229787;28;20046;-59
2024/04/02 08:38:39;;;;;;;1.15;0.60;;;14.80;92.80;;;;;;4228933;28;20051;-54
2024/04/02 08:40:41;;;;;;;1.30;0.95;;;15.00;93.20;;;;;;4230104;28;20047;-53
2024/04/02 08:42:43;;;;;;;1.70;0.73;;;14.80;92.50;;;;;;4229609;28;20061;-51
2024/04/02 08:44:46;;;;;;;1.60;0.30;;;14.50;92.50;;;;;;4229258;28;20039;-52
2024/04/02 08:46:48;;;;;;;3.17;1.25;;;14.40;93.50;;;;;;4230148;28;20519;-54
2024/04/02 08:48:52;;;;;;;2.13;0.70;;;14.50;93.20;;;;;;4230118;28;20052;-52
2024/04/02 08:50:55;;;;;;;1.83;0.50;;;14.70;92.80;;;;;;4229785;28;20069;-52
2024/04/02 08:52:57;;;;;;;1.67;1.20;;;14.50;93.00;;;;;;4229476;28;20440;-53
2024/04/02 08:54:58;;;;;;;5.13;1.77;;;14.30;93.20;;;;;;4229376;28;20055;-61
2024/04/02 08:57:01;;;;;;;3.78;1.23;;;14.10;93.60;;;;;;4229398;28;20047;-52
2024/04/02 08:59:03;;;;;;;6.75;1.60;;;14.20;93.20;;;;;;4212363;28;20060;-54
2024/04/02 09:01:06;;;;;;;1.48;0.50;;;14.10;93.50;;;;;;4230112;28;20477;-55
2024/04/02 09:03:12;;;;;;;1.73;0.50;;;14.10;93.50;;;;;;4230185;28;20054;-53
2024/04/02 09:05:14;;;;;;;0.43;0.40;;;14.20;92.80;;;;;;4229758;28;20048;-56
2024/04/02 09:07:15;;;;;;;2.13;0.80;;;14.20;93.50;;;;;;4229689;28;20513;-54
2024/04/02 09:09:20;;;;;;;1.75;0.30;;;14.30;93.20;;;;;;4229962;28;20040;-54
2024/04/02 09:11:23;;;;;;;0.85;0.30;;;14.30;92.70;;;;;;4230226;28;20085;-56
2024/04/02 09:13:25;;;;;;;0.63;0.50;;;14.30;92.60;;;;;;4229807;28;20124;-54
2024/04/02 09:15:26;;;;;;;6.20;1.02;;;14.40;92.70;;;;;;4230150;28;20044;-54
2024/04/02 09:17:29;;;;;;;3.53;0.80;;;14.50;92.40;;;;;;4230077;28;20039;-54
2024/04/02 09:19:30;;;;;;;2.13;0.40;;;14.30;92.80;;;;;;4229564;28;20054;-54
2024/04/02 09:21:32;;;;;;;1.50;0.73;;;14.30;92.30;;;;;;4229685;28;20052;-54
2024/04/02 09:23:33;;;;;;;6.22;1.48;;;14.20;92.20;;;;;;4229360;28;20044;-53
2024/04/02 09:25:34;;;;;;;1.30;0.70;;;14.30;92.40;;;;;;4229247;28;20040;-57
2024/04/02 09:27:36;;;;;;;7.32;1.60;;;14.40;92.70;;;;;;4228717;28;20058;-55
2024/04/02 09:29:37;;;;;;;2.28;1.00;;;14.40;92.20;;;;;;4229289;28;20048;-55
2024/04/02 09:31:39;;;;;;;1.48;0.30;;;14.40;92.20;;;;;;4229396;28;20483;-52
2024/04/02 09:33:48;;;;;;;1.88;0.60;;;14.40;92.50;;;;;;4229379;28;20043;-53
2024/04/02 09:36:06;;;;;;;0.73;0.40;;;14.50;91.80;;;;;;4229534;28;20392;-53
2024/04/02 09:38:08;;;;;;;2.58;1.60;;;14.50;92.70;;;;;;4229249;28;20421;-56
2024/04/02 09:40:11;;;;;;;0.85;0.50;;;14.70;92.40;;;;;;4229543;28;20044;-51
2024/04/02 09:42:14;;;;;;;1.23;0.77;;;14.70;92.00;;;;;;4228942;28;20517;-54
2024/04/02 09:44:17;;;;;;;1.08;0.30;;;14.90;92.30;;;;;;4229193;28;20358;-55
2024/04/02 09:46:20;;;;;;;1.90;0.40;;;15.00;91.50;;;;;;4229563;28;20062;-54
2024/04/02 09:48:25;;;;;;;1.52;0.70;;;15.00;91.70;;;;;;4228964;28;20050;-51
2024/04/02 09:50:30;;;;;;;0.55;0.52;;;14.80;91.20;;;;;;4230998;28;20054;-52
2024/04/02 09:52:32;;;;;;;1.27;0.20;;;14.70;91.70;;;;;;4234603;28;20047;-53
2024/04/02 09:54:35;;;;;;;0.98;0.40;;;14.60;91.90;;;;;;4232426;28;20049;-53
2024/04/02 09:56:37;;;;;;;1.35;0.65;;;14.70;91.40;;;;;;4232245;28;20056;-54
2024/04/02 09:58:38;;;;;;;1.23;0.45;;;14.80;91.70;;;;;;4231808;28;20047;-55
2024/04/02 10:00:46;;;;;;;12.00;0.80;;;14.70;91.40;;;;;;4232192;28;20053;-52
2024/04/02 10:02:50;;;;;;;0.80;0.70;;;14.80;90.70;;;;;;4232041;28;20048;-57
2024/04/02 10:04:52;;;;;;;1.13;0.77;;;14.90;91.80;;;;;;4215253;28;20496;-52
2024/04/02 10:07:00;;;;;;;5.18;0.40;;;15.20;91.30;;;;;;4232128;28;20047;-52
2024/04/02 10:09:03;;;;;;;1.23;0.30;;;15.20;90.80;;;;;;4236738;28;20044;-53
2024/04/02 10:11:09;;;;;;;2.28;0.35;;;15.00;91.10;;;;;;4231415;28;20051;-54
2024/04/02 10:13:11;;;;;;;1.02;0.40;;;14.90;91.10;;;;;;4215390;28;20478;-53
2024/04/02 10:15:12;;;;;;;0.88;0.40;;;14.80;91.00;;;;;;4232155;28;20463;-55
2024/04/02 10:17:15;;;;;;;2.20;1.05;;;14.90;91.40;;;;;;4232379;28;20465;-54
2024/04/02 10:19:28;;;;;;;1.02;0.60;;;14.90;90.70;;;;;;4232191;28;20120;-54
2024/04/02 10:21:33;;;;;;;5.20;2.17;;;15.00;91.30;;;;;;4231879;28;20144;-54
2024/04/02 10:23:35;;;;;;;;;;;15.00;91.00;;;;;;4232734;28;20078;-55
2024/04/02 10:25:37;;;;;;;2.50;0.30;;;15.00;91.10;;;;;;4231703;28;19919;-54
2024/04/02 10:27:42;;;;;;;1.23;0.75;;;14.90;91.50;;;;;;4232217;28;20508;-54
2024/04/02 10:29:43;;;;;;;2.65;0.43;;;15.00;91.60;;;;;;4231787;28;20052;-50
2024/04/02 10:31:45;;;;;;;2.28;0.43;;;15.00;91.70;;;;;;4231655;28;20092;-51
2024/04/02 10:33:48;;;;;;;1.58;0.60;;;15.00;91.30;;;;;;4232016;28;20051;-50
2024/04/02 10:35:50;;;;;;;4.18;0.38;;;15.20;91.80;;;;;;4232005;28;20039;-52